Flight Track Log - Related Links

Times and Time Zones

All times are in EST time to prevent confusion due to time zone crossing. See the SWA169 flight status page for this flight to view local times or setup timezone preferences in your user account.

Time Position Orientation Groundspeed Altitude Reporting Facility
EST Latitude Longitude Course Direction KTS MPH feet Rate Location/Type
Thu 07:20:35 PM 39.1833 -76.8000 270° West 218 251 4,900  Level Potomac TRACON
Thu 07:21:35 PM 39.2000 -76.8833 284° West 247 284 8,100 3,124 Climbing Potomac TRACON
Thu 07:22:36 PM 39.2167 -76.9667 284° West 259 298 11,200 2,826 Climbing Potomac TRACON
Thu 07:23:36 PM 39.2167 -77.1000 270° West 326 375 13,800 3,050 Climbing Potomac TRACON
Thu 07:24:36 PM 39.1667 -77.2000 237° Southwest 333 383 17,300 3,135 Climbing Potomac TRACON
Thu 07:26:34 PM 39.0731 -77.3750 235° Southwest 334 384 23,100 2,966 Climbing Washington Center
Thu 07:27:34 PM 39.0567 -77.5003 260° West 334 384 26,100 2,777 Climbing Washington Center
Thu 07:28:35 PM 39.0422 -77.6256 262° West 348 400 28,700 1,918 Climbing Washington Center
Thu 07:29:36 PM 39.0275 -77.7453 261° West 356 410 30,000 645 Climbing Washington Center
Thu 07:30:36 PM 39.0131 -77.8517 260° West 347 399 30,000  Level Washington Center
Thu 07:31:34 PM 38.9942 -77.9714 259° West 347 399 30,000  Level Washington Center
Thu 07:32:34 PM 38.9772 -78.0908 260° West 347 399 30,000  Level Washington Center
Thu 07:33:35 PM 38.9619 -78.2106 261° West 347 399 30,000 639 Level Washington Center
Thu 07:34:36 PM 38.9675 -78.3361 273° West 352 405 31,300 1,966 Climbing Washington Center
Thu 07:35:34 PM 38.9753 -78.4567 275° West 347 399 33,900 1,373 Climbing Washington Center
Thu 07:36:34 PM 38.9828 -78.5772 275° West 341 392 34,000 50 Climbing Washington Center
Thu 07:37:35 PM 38.9900 -78.6975 274° West 341 392 34,000  Level Washington Center
Thu 07:38:36 PM 38.9994 -78.8183 276° West 341 392 34,000  Level Washington Center
Thu 07:39:34 PM 39.0067 -78.9361 275° West 341 392 34,000  Level Washington Center
Thu 07:40:35 PM 39.0136 -79.0567 274° West 341 392 34,000  Level Washington Center
Thu 07:41:36 PM 39.0206 -79.1744 274° West 341 392 34,000  Level Washington Center
Thu 07:42:36 PM 39.0294 -79.2953 275° West 341 392 34,000  Level Washington Center
Thu 07:43:35 PM 39.0339 -79.4183 273° West 341 392 34,000  Level Washington Center
Thu 07:44:35 PM 39.0444 -79.5444 276° West 352 405 34,000  Level Washington Center
Thu 07:45:35 PM 39.0564 -79.6869 276° West 357 411 34,000  Level Washington Center
Thu 07:46:36 PM 39.0644 -79.8131 275° West 362 417 34,000 -64 Level Washington Center
Thu 07:47:09 PM 39.0636 -79.8825 269° West 363 418 33,900 -695 Descending Indianapolis Center
Thu 07:48:11 PM 39.0719 -80.0083 275° West 362 417 32,900 -1,016 Descending Indianapolis Center
Thu 07:49:13 PM 39.0783 -80.1472 273° West 364 419 31,800 -927 Descending Indianapolis Center
Thu 07:50:14 PM 39.0861 -80.2794 274° West 369 425 31,000 -390 Descending Indianapolis Center
Thu 07:51:16 PM 39.0939 -80.4083 274° West 363 418 31,000  Level Indianapolis Center
Thu 07:52:17 PM 39.1003 -80.5375 274° West 362 417 31,000 -244 Level Indianapolis Center
Thu 07:53:19 PM 39.1164 -80.6667 279° West 366 421 30,500 -823 Descending Indianapolis Center
Thu 07:54:21 PM 39.1594 -80.8122 291° West 361 415 29,300 -1,073 Descending Indianapolis Center
Thu 07:55:22 PM 39.1917 -80.9261 290° West 344 396 28,300 -976 Descending Indianapolis Center
Thu 07:56:24 PM 39.2236 -81.0400 290° West 340 391 27,300 -1,024 Descending Indianapolis Center
Thu 07:57:25 PM 39.2572 -81.1547 291° West 343 395 26,200 -1,024 Descending Indianapolis Center
Thu 07:58:27 PM 39.2903 -81.2692 290° West 342 394 25,200 -927 Descending Indianapolis Center
Thu 07:59:28 PM 39.3236 -81.3867 290° West 349 402 24,300 -927 Descending Indianapolis Center
Thu 08:00:30 PM 39.3708 -81.5056 297° West 378 435 23,300 -1,073 Descending Indianapolis Center
Thu 08:01:31 PM 39.4325 -81.6400 301° West 366 421 22,100 -1,073 Descending Indianapolis Center
Thu 08:02:33 PM 39.4842 -81.7519 301° West 365 420 21,100 -1,659 Descending Indianapolis Center
Thu 08:03:34 PM 39.5342 -81.8633 300° West 361 415 18,700 -2,479 Descending Indianapolis Center
Thu 08:04:34 PM 39.5833 -81.9725 300° West 342 394 16,100 -2,516 Descending Indianapolis Center
Thu 08:04:36 PM 39.5833 -81.9692 90° East 347 399 16,100 -2,526 Level Indianapolis Center
Thu 08:04:53 PM 39.5972 -82.0044 297° West 338 389 15,300 -2,361 Descending Indianapolis Center
Thu 08:05:37 PM 39.6297 -82.0717 302° West 334 384 13,700 -2,400 Descending Indianapolis Center
Thu 08:05:53 PM 39.6494 -82.1042 308° West 347 399 12,900 -2,710 Descending Indianapolis Center
Thu 08:06:39 PM 39.6928 -82.1739 309° West 330 380 10,900 -2,361 Descending Indianapolis Center
Thu 08:06:54 PM 39.7064 -82.1969 308° West 327 376 10,500 -984 Descending Indianapolis Center
Thu 08:07:40 PM 39.7508 -82.2578 293° West 316 364 9,900 -700 Descending Indianapolis Center
Thu 08:07:54 PM 39.7625 -82.2731 315° West 297 342 9,800 -968 Descending Indianapolis Center
Thu 08:08:00 PM 39.7448 -82.3154 293° West  Level FlightAware Approximate
Thu 08:08:42 PM 39.8147 -82.3133 329° Northwest 282 325 8,900  Level Indianapolis Center
Thu 08:08:55 PM 39.8350 -82.3303 327° Northwest 271 312 8,500 -1,770 Descending Indianapolis Center
Thu 08:09:43 PM 39.8806 -82.3608 333° Northwest 271 312 7,100 -2,066 Descending Indianapolis Center
Thu 08:09:56 PM 39.9000 -82.3783 325° Northwest 267 307 6,400 -1,161 Descending Indianapolis Center
Thu 08:10:45 PM 39.9428 -82.4097 331° Northwest 263 303 5,900 -700 Descending Indianapolis Center
Thu 08:10:56 PM 39.9611 -82.4231 331° Northwest 247 284 5,700 -787 Descending Indianapolis Center
Thu 08:11:46 PM 39.9769 -82.4594 300° West 226 260 5,100 -885 Descending Indianapolis Center
Thu 08:11:57 PM 39.9769 -82.4800 270° West 163 188 4,800 -774 Descending Indianapolis Center
Thu 08:12:48 PM 39.9800 -82.5181 276° West 185 213 4,300 -689 Descending Indianapolis Center
Thu 08:12:58 PM 39.9803 -82.5353 271° West 144 166 4,100 -295 Descending Indianapolis Center
Thu 08:13:49 PM 39.9817 -82.5686 273° West 159 183 4,000  Descending Indianapolis Center
Thu 08:13:58 PM 39.9797 -82.5869 262° West 141 162 4,100 86 Climbing Indianapolis Center
Thu 08:14:59 PM 39.9769 -82.6383 266° West 146 168 4,100 -198 Level Indianapolis Center
Thu 08:15:59 PM 39.9806 -82.6908 275° West 147 169 3,700 -574 Descending Indianapolis Center
Thu 08:16:54 PM 39.9831 -82.7367 274° West 147 169 3,000 -787 Descending Indianapolis Center
Thu 08:17:00 PM 39.9836 -82.7486 273° West 147 169 2,900 -689 Descending Indianapolis Center
Thu 08:17:55 PM 39.9867 -82.7814 277° West 138 159 2,300 -689 Descending Indianapolis Center
Thu 08:18:01 PM 39.9861 -82.7900 265° West 118 136 2,200 -677 Descending Indianapolis Center
Thu 08:18:57 PM 39.9886 -82.8247 275° West 127 146 1,600 -700 Descending Indianapolis Center
Thu 08:19:01 PM 39.9883 -82.8339 268° West 124 143 1,500 -393 Descending Indianapolis Center
Thu 08:19:58 PM 39.9922 -82.8778 277° West 127 146 1,200 -316 Descending Indianapolis Center

Login

Don't have an account? Register now (free) for customized features, flight alerts, and more!